createdAt,value
2022-11-20T00:01:58.581Z,30.1
2022-11-20T00:07:36.754Z,28.8
2022-11-20T00:12:59.394Z,28.1
2022-11-20T00:18:37.328Z,31.3
2022-11-20T00:24:15.128Z,35.1
2022-11-20T00:29:53.162Z,31.1
2022-11-20T00:35:34.780Z,29.3
2022-11-20T00:40:57.479Z,28.4
2022-11-20T00:46:20.094Z,27.3
2022-11-20T00:51:25.408Z,33.7
2022-11-20T00:56:47.975Z,33.9
2022-11-20T01:01:56.941Z,30.3
2022-11-20T01:07:04.413Z,29.1
2022-11-20T01:12:27.284Z,28.4
2022-11-20T01:18:08.916Z,29.1
2022-11-20T01:23:45.929Z,34.5
2022-11-20T01:29:22.538Z,32.1
2022-11-20T01:34:45.457Z,29.4
2022-11-20T01:40:07.420Z,28.6
2022-11-20T01:50:20.247Z,30.1
2022-11-20T01:55:41.965Z,34.8
2022-11-20T02:01:20.056Z,31.8
2022-11-20T02:06:11.212Z,29.2
2022-11-20T02:11:55.347Z,28.4
2022-11-20T02:17:17.431Z,27.7
2022-11-20T02:22:39.463Z,30.5
2022-11-20T02:28:16.682Z,34.8
2022-11-20T02:33:22.420Z,31.4
2022-11-20T02:38:59.489Z,29.3
2022-11-20T02:44:36.481Z,28.4
2022-11-20T02:49:58.087Z,27.7
2022-11-20T02:55:18.467Z,30.3
2022-11-20T03:00:55.210Z,34.8
2022-11-20T03:06:15.826Z,31.7
2022-11-20T03:11:37.847Z,29.3
2022-11-20T03:17:05.006Z,28.5
2022-11-20T03:27:17.530Z,26.9
2022-11-20T03:33:00.324Z,33.7
2022-11-20T03:38:37.824Z,33.1
2022-11-20T03:43:59.611Z,29.5
2022-11-20T03:49:24.906Z,28.5
2022-11-20T03:59:53.450Z,27.3
2022-11-20T04:05:00.122Z,32.8
2022-11-20T04:10:37.892Z,34.2
2022-11-20T04:16:15.021Z,30.1
2022-11-20T04:21:37.001Z,28.8
2022-11-20T04:27:20.116Z,28
2022-11-20T04:32:57.138Z,27.4
2022-11-20T04:38:03.418Z,31.8
2022-11-20T04:43:40.143Z,35.1
2022-11-20T04:49:17.977Z,30.8
2022-11-20T04:54:55.055Z,28.9
2022-11-20T05:00:03.455Z,28.1
2022-11-20T05:05:10.921Z,27.5
2022-11-20T05:10:48.352Z,27.4
2022-11-20T05:16:26.819Z,33.9
2022-11-20T05:21:50.533Z,32.7
2022-11-20T05:27:13.889Z,29.3
2022-11-20T05:32:51.556Z,28.3
2022-11-20T05:38:28.481Z,27.7
2022-11-20T05:44:08.258Z,27.1
2022-11-20T05:49:32.865Z,26.4
2022-11-20T05:55:12.238Z,25.8
2022-11-20T06:00:48.681Z,25.3
2022-11-20T06:06:26.059Z,24.8
2022-11-20T06:12:03.391Z,24.3
2022-11-20T06:17:25.621Z,23.9
2022-11-20T06:22:54.484Z,23.6
2022-11-20T06:28:31.407Z,29
2022-11-20T06:34:13.010Z,34.1
2022-11-20T06:39:39.204Z,30.1
2022-11-20T06:45:01.604Z,28.7
2022-11-20T06:50:38.760Z,28
2022-11-20T06:56:19.969Z,27.3
2022-11-20T07:02:03.143Z,26.6
2022-11-20T07:07:47.176Z,25.9
2022-11-20T07:13:24.280Z,25.3
2022-11-20T07:19:07.068Z,24.8
2022-11-20T07:24:46.198Z,24.3
2022-11-20T07:30:23.878Z,23.9
2022-11-20T07:36:03.021Z,23.6
2022-11-20T07:41:24.299Z,23.3
2022-11-20T07:46:30.556Z,23
2022-11-20T07:52:08.588Z,22.9
2022-11-20T07:57:46.183Z,22.7
2022-11-20T08:03:25.050Z,22.6
2022-11-20T08:08:50.331Z,22.4
2022-11-20T08:13:57.446Z,22.3
2022-11-20T08:19:57.607Z,22.2
2022-11-20T08:25:19.941Z,22.1
2022-11-20T08:30:51.796Z,22
2022-11-20T08:36:32.698Z,21.9
2022-11-20T08:42:16.818Z,21.9
2022-11-20T08:47:54.451Z,21.9
2022-11-20T08:53:32.077Z,21.9
2022-11-20T09:00:20.894Z,21.9
2022-11-20T09:06:03.459Z,21.8
2022-11-20T09:12:03.131Z,21.8
2022-11-20T09:17:10.196Z,21.7
2022-11-20T09:23:07.084Z,21.6
2022-11-20T09:28:28.878Z,21.6
2022-11-20T09:33:50.999Z,21.6
2022-11-20T09:39:32.831Z,21.6
2022-11-20T09:45:14.308Z,21.6
2022-11-20T09:50:55.517Z,21.6
2022-11-20T09:56:36.054Z,21.6
2022-11-20T10:02:12.829Z,21.6
2022-11-20T10:08:20.989Z,21.6
2022-11-20T10:14:03.260Z,21.5
2022-11-20T10:19:44.727Z,21.5
2022-11-20T10:25:23.681Z,21.5
2022-11-20T10:31:09.474Z,21.5
2022-11-20T10:37:09.458Z,21.5
2022-11-20T10:42:47.567Z,21.4
2022-11-20T10:48:29.810Z,21.4
2022-11-20T10:53:42.064Z,21.4
2022-11-20T10:59:05.537Z,21.4
2022-11-20T11:04:43.475Z,21.4
2022-11-20T11:10:06.089Z,21.4
2022-11-20T11:15:28.732Z,21.4
2022-11-20T11:20:50.736Z,21.4
2022-11-20T11:26:42.356Z,21.4
2022-11-20T11:32:19.671Z,21.4
2022-11-20T11:38:03.483Z,21.4
2022-11-20T11:44:03.901Z,21.3
2022-11-20T11:49:42.335Z,21.3
2022-11-20T11:55:10.003Z,21.3
2022-11-20T12:00:01.615Z,21.3
2022-11-20T12:05:26.877Z,21.2
2022-11-20T12:22:05.702Z,21.1
2022-11-20T12:27:43.309Z,21
2022-11-20T12:33:20.826Z,21
2022-11-20T12:38:48.810Z,21.1
2022-11-20T12:43:55.755Z,21.1
2022-11-20T12:49:19.742Z,21.1
2022-11-20T12:55:23.809Z,21.1
2022-11-20T13:01:01.749Z,21.1
2022-11-20T13:06:40.869Z,21
2022-11-20T13:12:07.881Z,21
2022-11-20T13:17:45.449Z,21.1
2022-11-20T13:23:22.773Z,21.1
2022-11-20T13:29:05.379Z,21.1
2022-11-20T13:34:42.651Z,21.1
2022-11-20T13:40:20.621Z,21
2022-11-20T13:46:03.167Z,21.1
2022-11-20T13:51:42.644Z,21.1
2022-11-20T13:57:19.421Z,21.1
2022-11-20T14:02:58.963Z,21.1
2022-11-20T14:09:05.619Z,21.1
2022-11-20T14:14:43.577Z,21
2022-11-20T14:20:27.848Z,21.1
2022-11-20T14:25:50.088Z,21
2022-11-20T14:31:27.977Z,21.1
2022-11-20T14:37:05.294Z,21.1
2022-11-20T14:42:43.192Z,21.1
2022-11-20T14:48:20.958Z,21.1
2022-11-20T14:54:02.777Z,21
2022-11-20T14:59:24.551Z,21
2022-11-20T15:05:06.782Z,21
2022-11-20T15:10:29.155Z,21
2022-11-20T15:16:10.471Z,21
2022-11-20T15:21:32.294Z,21
2022-11-20T15:26:54.443Z,20.9
2022-11-20T15:32:32.336Z,21
2022-11-20T15:38:14.083Z,20.9
2022-11-20T15:43:51.198Z,21
2022-11-20T15:49:34.124Z,20.9
2022-11-20T15:54:25.867Z,20.9
2022-11-20T15:59:53.488Z,20.9
2022-11-20T16:05:38.537Z,20.9
2022-11-20T16:11:00.501Z,20.9
2022-11-20T16:16:23.807Z,20.9
2022-11-20T16:22:03.063Z,20.9
2022-11-20T16:27:41.326Z,20.9
2022-11-20T16:33:19.885Z,20.9
2022-11-20T16:38:41.775Z,20.9
2022-11-20T16:43:52.406Z,20.9
2022-11-20T16:49:35.452Z,20.8
2022-11-20T16:54:58.742Z,20.8
2022-11-20T17:00:20.534Z,20.9
2022-11-20T17:05:58.995Z,20.8
2022-11-20T17:11:36.976Z,20.8
2022-11-20T17:17:16.494Z,20.9
2022-11-20T17:22:56.862Z,20.8
2022-11-20T17:28:09.143Z,20.8
2022-11-20T17:33:51.999Z,20.8
2022-11-20T17:39:33.084Z,20.8
2022-11-20T17:44:59.483Z,20.8
2022-11-20T17:50:38.076Z,20.8
2022-11-20T17:56:17.424Z,20.8
2022-11-20T18:01:59.676Z,20.8
2022-11-20T18:07:41.868Z,20.8
2022-11-20T18:13:19.850Z,20.8
2022-11-20T18:18:58.893Z,20.8
2022-11-20T18:24:58.146Z,20.8
2022-11-20T18:30:28.878Z,20.7
2022-11-20T18:36:14.048Z,20.8
2022-11-20T18:41:36.725Z,20.7
2022-11-20T18:46:59.841Z,20.6
2022-11-20T18:52:21.539Z,20.7
2022-11-20T18:57:44.204Z,20.7
2022-11-20T19:03:32.543Z,20.7
2022-11-20T19:09:11.113Z,20.7
2022-11-20T19:14:35.320Z,20.7
2022-11-20T19:20:13.346Z,20.7
2022-11-20T19:25:20.090Z,20.7
2022-11-20T19:30:59.900Z,20.6
2022-11-20T19:36:45.005Z,20.6
2022-11-20T19:42:28.794Z,20.6
2022-11-20T19:48:22.584Z,20.6
2022-11-20T19:53:31.897Z,20.5
2022-11-20T19:59:09.868Z,20.4
2022-11-20T20:04:40.447Z,20.5
2022-11-20T20:10:18.894Z,20.4
2022-11-20T20:15:44.437Z,20.4
2022-11-20T20:21:06.845Z,20.4
2022-11-20T20:26:44.189Z,20.4
2022-11-20T20:32:06.685Z,23.3
2022-11-20T20:37:13.098Z,30.5
2022-11-20T20:42:20.004Z,32.9
2022-11-20T20:47:42.412Z,34.1
2022-11-20T20:53:20.533Z,31.2
2022-11-20T20:58:44.850Z,29.3
2022-11-20T21:04:08.321Z,30
2022-11-20T21:09:17.644Z,33.3
2022-11-20T21:14:55.613Z,32.8
2022-11-20T21:20:34.488Z,29.8
2022-11-20T21:26:12.577Z,28.8
2022-11-20T21:31:39.054Z,28.1
2022-11-20T21:37:01.385Z,30.4
2022-11-20T21:42:25.650Z,33.5
2022-11-20T21:48:39.092Z,31.9
2022-11-20T21:54:16.722Z,29.4
2022-11-20T21:59:40.676Z,28.5
2022-11-20T22:05:18.844Z,27.8
2022-11-20T22:10:56.561Z,26.9
2022-11-20T22:17:00.543Z,30.8
2022-11-20T22:22:22.837Z,33.9
2022-11-20T22:28:03.713Z,30.8
2022-11-20T22:33:30.107Z,29.2
2022-11-20T22:38:55.781Z,28.4
2022-11-20T22:44:17.257Z,27.7
2022-11-20T22:49:58.505Z,26.9
2022-11-20T22:55:35.398Z,28.3
2022-11-20T23:01:12.489Z,32.9
2022-11-20T23:06:49.740Z,32.5
2022-11-20T23:12:27.773Z,29.7
2022-11-20T23:18:05.847Z,28.7
2022-11-20T23:23:43.432Z,27.9
2022-11-20T23:29:25.479Z,27.2
2022-11-20T23:34:47.521Z,26.4
2022-11-20T23:40:25.073Z,30.6
2022-11-20T23:46:02.456Z,33.8
2022-11-20T23:51:39.918Z,30.8
2022-11-20T23:57:08.611Z,29.1
